Time;durP1;ratioP1;P1;durP2;ratioP2;P2;SDS_P1;SDS_P2;PMS_P1;PMS_P2;Temp;Humidity;BMP_temperature;BMP_pressure;BME280_temperature;BME280_humidity;BME280_pressure;Samples;Min_cycle;Max_cycle;Signal;HPM_P1;HPM_P2
2022/02/09 00:07:42;;;;;;;2.58;1.08;;;;;;;;;;5111498;28;20031;-77
2022/02/09 00:10:08;;;;;;;1.40;0.80;;;;;;;;;;5111339;28;20020;-77
2022/02/09 00:15:34;;;;;;;2.15;1.00;;;;;;;;;;5111027;28;20119;-77
2022/02/09 00:34:33;;;;;;;2.08;0.85;;;;;;;;;;5070517;28;20040;-78
2022/02/09 01:57:36;;;;;;;3.15;0.90;;;;;;;;;;5113069;28;20054;-78
2022/02/09 02:00:02;;;;;;;1.60;0.95;;;;;;;;;;5113329;28;20043;-78
2022/02/09 02:02:28;;;;;;;1.83;0.88;;;;;;;;;;5095295;28;20024;-78
2022/02/09 02:04:54;;;;;;;1.58;0.90;;;;;;;;;;5093202;28;20036;-77
2022/02/09 02:07:47;;;;;;;2.03;1.10;;;;;;;;;;5094211;28;20027;-77
2022/02/09 02:10:09;;;;;;;2.25;0.93;;;;;;;;;;5111681;28;20071;-77
2022/02/09 02:13:06;;;;;;;1.63;1.13;;;;;;;;;;5112951;28;20011;-78
2022/02/09 02:16:11;;;;;;;2.60;1.30;;;;;;;;;;5094312;28;20034;-78
2022/02/09 02:18:34;;;;;;;1.65;0.90;;;;;;;;;;5112420;28;20032;-78
2022/02/09 02:26:15;;;;;;;1.55;1.02;;;;;;;;;;5113088;28;20032;-78
2022/02/09 02:58:36;;;;;;;2.08;1.20;;;;;;;;;;5112124;28;20115;-78
2022/02/09 03:18:00;;;;;;;2.10;1.10;;;;;;;;;;5076238;28;20047;-78
2022/02/09 03:20:35;;;;;;;1.73;1.00;;;;;;;;;;5112060;28;20031;-78
2022/02/09 03:23:42;;;;;;;1.75;1.27;;;;;;;;;;5093378;28;20100;-78
2022/02/09 03:56:24;;;;;;;2.15;1.20;;;;;;;;;;5115057;28;20403;-78
2022/02/09 03:57:56;;;;;;;2.30;1.42;;;;;;;;;;5102388;28;20027;-78
2022/02/09 04:00:24;;;;;;;1.67;1.45;;;;;;;;;;5097065;28;20027;-78
2022/02/09 04:02:55;;;;;;;2.13;1.48;;;;;;;;;;5115267;28;20110;-78
2022/02/09 04:05:21;;;;;;;4.28;1.58;;;;;;;;;;5097161;28;20035;-78
2022/02/09 04:07:47;;;;;;;2.03;1.30;;;;;;;;;;5096869;28;20024;-79
2022/02/09 04:10:20;;;;;;;1.95;1.23;;;;;;;;;;5097178;28;20032;-78
2022/02/09 04:16:01;;;;;;;2.60;1.50;;;;;;;;;;5115371;28;20034;-79
2022/02/09 04:37:24;;;;;;;2.33;1.40;;;;;;;;;;5114998;28;20045;-77
2022/02/09 04:40:03;;;;;;;2.45;1.52;;;;;;;;;;5114844;28;20100;-77
2022/02/09 04:42:43;;;;;;;2.33;1.42;;;;;;;;;;5114861;28;20467;-78
2022/02/09 04:45:41;;;;;;;1.95;1.38;;;;;;;;;;5114678;28;20508;-78
2022/02/09 04:50:39;;;;;;;2.50;1.63;;;;;;;;;;5114376;28;20035;-77
2022/02/09 04:56:08;;;;;;;2.30;1.60;;;;;;;;;;5059529;28;20049;-78
2022/02/09 04:58:47;;;;;;;2.55;1.75;;;;;;;;;;5114327;28;20024;-78
2022/02/09 05:01:40;;;;;;;2.22;1.90;;;;;;;;;;5114480;28;20065;-78
2022/02/09 05:26:05;;;;;;;2.22;1.63;;;;;;;;;;5093505;28;20089;-77
2022/02/09 05:28:31;;;;;;;2.28;1.48;;;;;;;;;;5093549;28;20515;-77
2022/02/09 05:30:57;;;;;;;2.40;1.55;;;;;;;;;;5084859;28;20036;-77
2022/02/09 05:33:24;;;;;;;2.28;1.80;;;;;;;;;;5113472;28;20036;-77
2022/02/09 05:35:50;;;;;;;1.75;1.20;;;;;;;;;;5095477;28;20533;-77
2022/02/09 05:38:17;;;;;;;2.92;2.13;;;;;;;;;;5113691;28;20031;-77
2022/02/09 05:40:44;;;;;;;2.08;1.50;;;;;;;;;;5095083;28;20535;-77
2022/02/09 05:43:11;;;;;;;2.13;1.40;;;;;;;;;;5095340;28;20024;-77
2022/02/09 05:53:22;;;;;;;2.00;1.48;;;;;;;;;;5113367;28;20426;-77
2022/02/09 05:56:07;;;;;;;2.05;1.48;;;;;;;;;;5095139;28;20016;-77
2022/02/09 05:58:37;;;;;;;2.28;1.48;;;;;;;;;;5113480;28;20493;-77
2022/02/09 06:01:03;;;;;;;1.95;1.50;;;;;;;;;;5113079;28;20041;-77
2022/02/09 06:03:30;;;;;;;2.17;1.55;;;;;;;;;;5113146;28;20477;-78
2022/02/09 06:05:56;;;;;;;2.13;1.40;;;;;;;;;;5113067;28;20032;-78
2022/02/09 06:08:24;;;;;;;2.83;1.60;;;;;;;;;;5113060;28;20107;-76
2022/02/09 06:11:02;;;;;;;2.10;1.52;;;;;;;;;;5112556;28;20031;-78
2022/02/09 06:14:18;;;;;;;2.13;1.40;;;;;;;;;;5093571;28;20028;-77
2022/02/09 06:21:46;;;;;;;1.85;1.30;;;;;;;;;;5112178;28;20038;-76
2022/02/09 06:24:12;;;;;;;2.47;1.60;;;;;;;;;;5094537;28;20031;-77
2022/02/09 06:26:38;;;;;;;1.92;1.17;;;;;;;;;;5112215;28;20024;-78
2022/02/09 06:29:04;;;;;;;3.30;1.48;;;;;;;;;;5112972;28;20085;-80
2022/02/09 06:31:32;;;;;;;2.53;1.38;;;;;;;;;;5094335;28;20114;-77
2022/02/09 06:33:58;;;;;;;4.80;1.40;;;;;;;;;;5112417;28;20111;-78
2022/02/09 06:36:25;;;;;;;3.25;1.60;;;20.40;65.10;;;;;;5111693;28;20023;-79
2022/02/09 06:38:51;;;;;;;2.05;1.42;;;16.60;69.40;;;;;;5094029;28;20641;-80
2022/02/09 06:41:17;;;;;;;2.53;1.52;;;16.60;68.80;;;;;;5093679;28;20024;-81
2022/02/09 06:43:43;;;;;;;2.60;1.58;;;16.60;68.70;;;;;;5112040;28;20433;-78
2022/02/09 06:46:09;;;;;;;2.17;1.38;;;;;;;;;;5093977;28;20024;-80
2022/02/09 06:48:35;;;;;;;2.53;1.63;;;;;;;;;;5094112;28;20030;-78
2022/02/09 06:51:08;;;;;;;2.38;1.50;;;;;;;;;;5112623;28;20030;-77
2022/02/09 06:53:45;;;;;;;2.83;1.42;;;16.60;68.70;;;;;;5112428;28;20015;-78
2022/02/09 06:56:13;;;;;;;2.60;1.30;;;;;;;;;;5112232;28;20020;-77
2022/02/09 06:58:55;;;;;;;3.45;1.80;;;16.70;68.60;;;;;;5093115;28;20035;-79
2022/02/09 07:01:20;;;;;;;2.80;1.58;;;16.70;68.50;;;;;;5093655;28;20054;-79
2022/02/09 07:03:46;;;;;;;3.45;1.58;;;16.70;68.50;;;;;;5111970;28;20525;-78
2022/02/09 07:06:12;;;;;;;2.92;1.40;;;16.70;68.50;;;;;;5112002;28;20110;-80
2022/02/09 07:08:37;;;;;;;2.80;1.60;;;16.70;68.60;;;;;;5093559;28;20023;-80
2022/02/09 07:11:03;;;;;;;2.05;1.50;;;16.80;68.60;;;;;;5094002;28;20513;-79
2022/02/09 07:13:29;;;;;;;2.58;1.65;;;16.80;68.60;;;;;;5111656;28;20386;-74
2022/02/09 07:16:00;;;;;;;4.45;1.52;;;16.90;82.30;;;;;;5111939;28;20493;-79
2022/02/09 07:18:27;;;;;;;3.25;1.60;;;16.90;74.40;;;;;;5111299;28;20032;-82
2022/02/09 07:21:01;;;;;;;4.00;1.95;;;17.00;74.50;;;;;;5092098;28;20040;-80
2022/02/09 07:24:01;;;;;;;4.40;1.40;;;17.10;73.10;;;;;;5090812;28;20027;-78
2022/02/09 07:28:44;;;;;;;2.25;1.30;;;17.20;73.10;;;;;;5111525;28;20058;-78
2022/02/09 07:31:11;;;;;;;5.35;1.40;;;17.20;73.70;;;;;;5093103;28;20031;-79
2022/02/09 07:33:41;;;;;;;3.72;1.95;;;17.20;74.10;;;;;;5107233;28;20093;-75
2022/02/09 07:36:09;;;;;;;2.45;1.33;;;17.20;73.80;;;;;;5091788;28;20047;-80
2022/02/09 07:38:35;;;;;;;1.98;1.23;;;17.20;73.70;;;;;;5111374;28;20026;-82
2022/02/09 07:41:01;;;;;;;4.50;1.40;;;17.30;73.90;;;;;;5109634;28;20099;-78
2022/02/09 07:52:00;;;;;;;5.75;1.98;;;17.40;75.00;;;;;;5090867;28;20115;-83
2022/02/09 07:56:16;;;;;;;4.68;1.92;;;17.40;83.50;;;;;;5090546;28;20145;-80
2022/02/09 07:58:43;;;;;;;6.03;2.10;;;17.40;76.80;;;;;;5088784;28;20539;-83
2022/02/09 08:01:09;;;;;;;5.03;1.75;;;17.30;70.20;;;;;;5089613;28;20020;-83
2022/02/09 08:03:36;;;;;;;7.72;2.28;;;17.30;69.80;;;;;;5091018;28;20368;-82
2022/02/09 08:06:04;;;;;;;9.57;2.70;;;17.30;69.40;;;;;;5091056;28;20070;-86
2022/02/09 08:08:32;;;;;;;5.70;2.30;;;17.30;69.30;;;;;;5089972;28;20056;-86
2022/02/09 08:11:11;;;;;;;4.82;2.53;;;17.30;69.10;;;;;;5090167;28;20039;-86
2022/02/09 08:30:08;;;;;;;5.43;2.70;;;17.30;70.50;;;;;;5111043;28;20055;-82
2022/02/09 08:32:51;;;;;;;6.22;2.72;;;17.30;70.30;;;;;;5110922;28;20582;-82
2022/02/09 08:35:20;;;;;;;5.68;2.72;;;17.30;70.20;;;;;;5092572;28;20044;-83
2022/02/09 08:37:46;;;;;;;4.32;2.25;;;17.30;70.30;;;;;;5093878;28;20020;-82
2022/02/09 08:40:17;;;;;;;7.18;2.40;;;17.30;69.90;;;;;;5096071;28;20490;-83
2022/02/09 08:42:42;;;;;;;5.80;2.60;;;17.40;70.00;;;;;;5096140;28;20130;-79
2022/02/09 08:54:43;;;;;;;7.30;2.47;;;18.10;67.20;;;;;;5129427;27;20108;-81
2022/02/09 08:57:11;;;;;;;6.15;2.35;;;18.00;67.50;;;;;;5111425;28;20390;-83
2022/02/09 08:59:39;;;;;;;6.10;1.83;;;17.90;68.10;;;;;;5111109;28;20042;-85
2022/02/09 09:02:08;;;;;;;3.80;1.73;;;17.80;69.20;;;;;;5129551;28;20026;-81
2022/02/09 09:04:45;;;;;;;5.13;1.90;;;17.80;68.60;;;;;;5110687;28;20023;-81
2022/02/09 09:07:17;;;;;;;7.53;2.80;;;17.80;68.90;;;;;;5129323;28;20026;-82
2022/02/09 09:15:11;;;;;;;3.40;1.85;;;17.90;68.90;;;;;;5129431;28;20050;-82
2022/02/09 10:34:20;;;;;;;4.72;1.70;;;19.50;63.10;;;;;;5114289;28;20131;-80
2022/02/09 10:36:51;;;;;;;4.60;2.00;;;19.50;63.00;;;;;;5113643;28;20449;-80
2022/02/09 10:39:22;;;;;;;4.80;1.85;;;19.60;62.80;;;;;;5113940;28;20115;-80
2022/02/09 10:42:19;;;;;;;3.63;1.83;;;19.60;62.60;;;;;;5113892;28;20046;-80
2022/02/09 10:44:50;;;;;;;;;;;19.60;62.60;;;;;;5114363;28;20024;-80
2022/02/09 10:47:31;;;;;;;2.85;1.27;;;19.70;62.50;;;;;;5113990;28;20313;-80
2022/02/09 10:50:10;;;;;;;4.78;1.70;;;19.80;63.00;;;;;;5095327;28;20027;-80
2022/02/09 10:52:40;;;;;;;2.67;1.90;;;19.90;62.00;;;;;;5113132;28;20175;-80
2022/02/09 10:55:28;;;;;;;3.72;1.40;;;19.90;61.90;;;;;;5095201;28;20023;-80
2022/02/09 10:57:55;;;;;;;4.32;1.90;;;19.90;61.90;;;;;;5113572;28;20102;-79
2022/02/09 11:00:22;;;;;;;3.72;1.58;;;19.80;61.80;;;;;;5113391;28;20027;-78
2022/02/09 11:02:49;;;;;;;3.05;1.63;;;19.80;62.00;;;;;;5095107;28;20067;-78
2022/02/09 11:05:19;;;;;;;3.22;1.50;;;19.80;62.20;;;;;;5113402;28;20047;-77
2022/02/09 11:07:45;;;;;;;5.80;1.73;;;19.70;62.10;;;;;;5112270;28;20111;-78
2022/02/09 11:10:11;;;;;;;4.05;1.42;;;19.70;62.20;;;;;;5094030;28;20383;-78
2022/02/09 11:12:38;;;;;;;3.22;1.63;;;19.70;62.30;;;;;;5111111;28;20035;-78
2022/02/09 11:15:07;;;;;;;3.45;1.67;;;19.70;62.30;;;;;;5094118;28;20027;-79
2022/02/09 11:17:33;;;;;;;5.40;1.63;;;19.70;62.30;;;;;;5111879;28;20031;-79
2022/02/09 11:19:59;;;;;;;3.65;1.85;;;19.80;62.20;;;;;;5094765;28;20020;-78
2022/02/09 11:22:38;;;;;;;4.10;1.33;;;19.70;62.20;;;;;;5094493;28;20020;-76
2022/02/09 11:25:53;;;;;;;5.15;1.60;;;19.80;62.20;;;;;;5112948;28;20035;-77
2022/02/09 11:28:30;;;;;;;4.47;1.50;;;19.80;62.10;;;;;;5112304;28;20031;-82
2022/02/09 11:31:11;;;;;;;6.07;1.58;;;19.90;62.50;;;;;;5094730;28;20035;-78
2022/02/09 11:33:55;;;;;;;10.93;1.63;;;20.00;62.90;;;;;;5094165;28;20081;-78
2022/02/09 11:38:52;;;;;;;18.75;2.38;;;19.90;62.40;;;;;;5112744;28;20020;-76
2022/02/09 11:41:50;;;;;;;4.55;1.75;;;19.90;62.50;;;;;;5114935;28;20012;-78
2022/02/09 11:44:37;;;;;;;3.35;1.40;;;19.70;62.40;;;;;;5111149;28;20019;-78
2022/02/09 11:47:30;;;;;;;3.30;1.85;;;19.70;62.80;;;;;;5111860;28;20037;-78
2022/02/09 11:54:35;;;;;;;4.00;1.70;;;19.70;63.10;;;;;;5112379;28;20501;-79
2022/02/09 12:09:42;;;;;;;10.95;2.83;;;19.60;63.20;;;;;;5091630;28;20085;-79
2022/02/09 12:12:13;;;;;;;11.85;2.80;;;19.50;62.70;;;;;;5073467;28;20122;-81
2022/02/09 12:20:20;;;;;;;56.80;6.85;;;19.60;63.20;;;;;;5091672;28;20034;-80
2022/02/09 12:25:48;;;;;;;39.38;4.68;;;19.50;63.40;;;;;;5091288;28;20110;-78
2022/02/09 12:28:18;;;;;;;39.85;4.22;;;19.50;63.60;;;;;;5091607;28;20020;-77
2022/02/09 12:30:45;;;;;;;38.95;4.35;;;19.50;63.90;;;;;;5091481;28;20020;-78
2022/02/09 12:33:21;;;;;;;30.30;3.72;;;19.40;64.10;;;;;;5073178;28;20031;-78
2022/02/09 12:35:47;;;;;;;24.42;4.30;;;19.40;64.00;;;;;;5091310;28;20028;-80
2022/02/09 12:38:13;;;;;;;27.05;5.07;;;;;;;;;;5090353;28;20495;-77
2022/02/09 12:40:39;;;;;;;31.73;4.43;;;;;;;;;;5091129;28;20024;-79
2022/02/09 12:43:08;;;;;;;25.88;4.90;;;;;;;;;;5073050;28;20119;-78
2022/02/09 12:45:36;;;;;;;26.05;4.03;;;;;;;;;;5072938;28;20123;-75
2022/02/09 12:48:04;;;;;;;18.42;3.28;;;;;;;;;;5091265;28;20020;-75
2022/02/09 12:50:40;;;;;;;16.38;3.33;;;;;;;;;;5090543;28;20031;-75
2022/02/09 12:53:07;;;;;;;22.55;3.78;;;;;;;;;;5091106;28;20031;-75
2022/02/09 12:55:35;;;;;;;24.30;3.72;;;;;;;;;;5072794;28;20032;-75
2022/02/09 12:58:05;;;;;;;18.55;3.00;;;;;;;;;;5091195;28;20024;-75
2022/02/09 13:00:34;;;;;;;15.88;2.80;;;;;;;;;;5090917;28;20024;-74
2022/02/09 13:03:03;;;;;;;24.17;3.58;;;;;;;;;;5072979;28;20032;-75
2022/02/09 13:05:30;;;;;;;13.93;2.55;;;;;;;;;;5072667;28;20534;-76
2022/02/09 13:07:56;;;;;;;14.35;3.30;;;;;;;;;;5073037;28;20017;-75
2022/02/09 13:10:23;;;;;;;11.50;2.63;;;;;;;;;;5072999;28;20028;-75
2022/02/09 13:12:50;;;;;;;16.58;2.72;;;;;;;;;;5090823;28;20031;-77
2022/02/09 13:15:21;;;;;;;11.50;2.15;;;;;;;;;;5073188;28;20051;-75
2022/02/09 13:18:14;;;;;;;13.00;2.25;;;;;;;;;;5072984;28;20111;-77
2022/02/09 14:12:13;;;;;;;6.03;1.30;;;19.10;63.30;;;;;;5080005;28;20032;-75
2022/02/09 14:15:19;;;;;;;11.13;1.88;;;19.00;63.60;;;;;;5114293;28;20582;-75
2022/02/09 14:58:23;;;;;;;9.23;1.48;;;18.30;66.00;;;;;;5072277;28;20031;-75
2022/02/09 15:01:01;;;;;;;8.70;1.55;;;18.30;66.20;;;;;;5095391;28;20059;-75
2022/02/09 15:06:24;;;;;;;8.18;1.50;;;18.30;66.30;;;;;;5113392;28;20020;-74
2022/02/09 15:08:53;;;;;;;;;;;18.20;66.40;;;;;;5113371;28;20496;-76
2022/02/09 15:11:34;;;;;;;6.43;1.40;;;18.20;66.50;;;;;;5095214;28;19903;-74
2022/02/09 15:14:12;;;;;;;3.70;1.23;;;18.20;66.70;;;;;;5095190;28;20073;-75
2022/02/09 15:24:43;;;;;;;7.63;1.27;;;18.00;67.00;;;;;;5112860;28;20075;-74
2022/02/09 15:27:15;;;;;;;6.28;1.10;;;18.00;67.00;;;;;;5094772;28;20107;-74
2022/02/09 15:29:41;;;;;;;3.28;1.30;;;18.00;66.90;;;;;;5112874;28;20016;-74
2022/02/09 15:32:18;;;;;;;9.73;1.63;;;18.00;67.00;;;;;;5112905;28;20027;-74
2022/02/09 15:34:48;;;;;;;5.90;1.40;;;18.00;67.30;;;;;;5112671;28;20363;-74
2022/02/09 15:39:50;;;;;;;5.70;1.33;;;18.00;67.70;;;;;;5112565;28;20031;-74
2022/02/09 16:09:30;;;;;;;4.72;1.15;;;17.90;68.10;;;;;;5112008;28;20122;-76
2022/02/09 16:22:33;;;;;;;6.63;1.65;;;17.90;68.10;;;;;;5112346;28;20023;-76
2022/02/09 16:25:22;;;;;;;2.53;0.85;;;17.90;68.00;;;;;;5112115;28;20080;-74
2022/02/09 16:38:59;;;;;;;5.00;1.92;;;17.80;68.60;;;;;;5111672;28;20391;-74
2022/02/09 16:46:54;;;;;;;3.45;1.27;;;18.30;67.10;;;;;;5112187;28;20098;-77
2022/02/09 16:51:59;;;;;;;6.72;1.42;;;18.50;67.50;;;;;;5111957;28;20048;-76
2022/02/09 16:57:00;;;;;;;10.40;1.70;;;18.60;66.60;;;;;;5112063;28;20077;-82
2022/02/09 17:21:15;;;;;;;6.20;1.42;;;19.00;66.00;;;;;;5114184;28;20043;-76
2022/02/09 17:23:41;;;;;;;9.13;1.70;;;19.10;65.90;;;;;;5114864;28;20038;-76
2022/02/09 17:26:08;;;;;;;5.50;1.27;;;19.10;65.90;;;;;;5112553;27;20038;-78
2022/02/09 17:28:34;;;;;;;2.90;1.38;;;19.10;65.80;;;;;;5116985;27;20038;-76
2022/02/09 17:31:40;;;;;;;5.30;1.27;;;19.20;65.70;;;;;;5102422;28;20402;-76
2022/02/09 17:34:13;;;;;;;6.25;1.50;;;19.20;65.70;;;;;;5112177;28;20036;-76
2022/02/09 17:58:13;;;;;;;6.40;1.85;;;19.70;65.30;;;;;;5114916;28;20055;-76
2022/02/09 18:00:39;;;;;;;5.47;1.75;;;19.70;65.50;;;;;;5114532;28;20016;-74
2022/02/09 18:03:05;;;;;;;4.88;1.65;;;19.70;65.90;;;;;;5114612;28;20042;-75
2022/02/09 18:08:00;;;;;;;3.50;1.63;;;19.80;64.60;;;;;;5114787;28;20031;-73
2022/02/09 18:29:26;;;;;;;6.47;2.22;;;20.00;63.70;;;;;;5114214;28;20039;-74
2022/02/09 19:03:57;;;;;;;8.10;1.92;;;20.30;63.90;;;;;;5110946;28;20551;-75
2022/02/09 19:07:10;;;;;;;4.97;2.55;;;20.30;63.00;;;;;;5113182;28;20023;-73
2022/02/09 19:17:00;;;;;;;4.15;2.08;;;20.40;62.90;;;;;;5112523;28;20051;-76
2022/02/09 19:30:41;;;;;;;3.53;2.28;;;20.40;63.20;;;;;;5092032;28;20082;-74
2022/02/09 19:54:41;;;;;;;15.10;7.93;;;20.40;63.90;;;;;;5112076;28;20028;-76
2022/02/09 19:57:07;;;;;;;20.20;9.35;;;20.50;64.60;;;;;;5092570;28;20070;-75
2022/02/09 19:59:36;;;;;;;18.02;8.40;;;20.60;65.10;;;;;;5091697;28;20105;-76
2022/02/09 20:02:03;;;;;;;14.30;6.80;;;20.60;64.80;;;;;;5103430;28;20019;-75
2022/02/09 20:04:28;;;;;;;14.35;6.38;;;20.50;64.30;;;;;;5111739;28;20043;-76
2022/02/09 20:06:54;;;;;;;14.70;7.18;;;20.60;64.70;;;;;;5111529;28;20023;-76
2022/02/09 20:09:24;;;;;;;14.88;6.88;;;20.60;64.80;;;;;;5112096;28;20034;-76
2022/02/09 20:11:50;;;;;;;16.98;7.82;;;20.60;64.30;;;;;;5111877;28;20019;-76
2022/02/09 20:14:16;;;;;;;15.27;5.95;;;20.60;64.20;;;;;;5112182;28;20027;-75
2022/02/09 20:16:42;;;;;;;16.95;6.78;;;20.50;64.20;;;;;;5111717;28;20369;-76
2022/02/09 20:19:07;;;;;;;13.88;6.47;;;20.60;64.10;;;;;;5111256;28;20111;-78
2022/02/09 20:21:33;;;;;;;11.93;5.63;;;20.60;64.10;;;;;;5110733;28;20019;-76
2022/02/09 20:24:01;;;;;;;11.65;6.22;;;20.70;63.90;;;;;;5112045;28;20028;-75
2022/02/09 20:26:27;;;;;;;14.00;6.20;;;20.60;63.90;;;;;;5111664;28;20026;-76
2022/02/09 20:29:01;;;;;;;9.55;5.32;;;20.60;64.10;;;;;;5093593;28;20031;-75
2022/02/09 20:31:34;;;;;;;10.20;5.50;;;20.50;65.00;;;;;;5111386;28;20019;-76
2022/02/09 20:34:10;;;;;;;10.88;5.72;;;20.50;64.20;;;;;;5111472;28;20027;-76
2022/02/09 20:36:37;;;;;;;14.40;5.63;;;20.40;64.10;;;;;;5093159;28;20027;-76
2022/02/09 20:39:05;;;;;;;9.57;5.20;;;20.40;64.10;;;;;;5093575;28;20376;-77
2022/02/09 20:41:33;;;;;;;8.65;5.05;;;20.30;64.10;;;;;;5110021;28;20095;-77
2022/02/09 20:44:18;;;;;;;8.45;5.07;;;20.30;64.10;;;;;;5110055;28;20510;-76
2022/02/09 20:46:44;;;;;;;8.80;4.90;;;20.20;64.10;;;;;;5107141;28;20495;-73
2022/02/09 20:49:09;;;;;;;10.73;5.10;;;20.20;64.10;;;;;;5109968;28;20065;-75
2022/02/09 20:51:35;;;;;;;9.05;5.30;;;20.20;64.10;;;;;;5109837;28;20514;-75
2022/02/09 20:54:01;;;;;;;7.53;4.15;;;20.10;63.90;;;;;;5089086;28;20035;-75
2022/02/09 20:56:27;;;;;;;8.50;4.93;;;20.10;63.90;;;;;;5109556;28;20026;-77
2022/02/09 20:58:59;;;;;;;7.55;4.13;;;20.10;63.90;;;;;;5110140;28;20027;-75
2022/02/09 21:01:33;;;;;;;8.05;4.40;;;20.10;63.80;;;;;;5089003;28;20399;-77
2022/02/09 21:04:04;;;;;;;7.90;4.50;;;20.00;63.80;;;;;;5110015;28;20024;-79
2022/02/09 21:07:42;;;;;;;10.18;5.63;;;20.00;63.80;;;;;;5109506;28;20023;-76
2022/02/09 21:09:48;;;;;;;8.45;4.47;;;19.90;64.10;;;;;;5094700;28;20521;-76
2022/02/09 21:52:47;;;;;;;6.22;3.47;;;19.00;65.60;;;;;;5105985;28;20058;-75
2022/02/09 21:57:50;;;;;;;7.75;4.20;;;19.00;65.80;;;;;;5103814;28;20055;-74
2022/02/09 22:22:18;;;;;;;7.07;4.50;;;18.60;66.10;;;;;;5107716;28;20083;-77
2022/02/09 22:54:26;;;;;;;7.70;3.75;;;18.20;66.20;;;;;;5113501;28;20065;-77
2022/02/09 22:56:29;;;;;;;6.18;4.30;;;18.10;66.30;;;;;;5109882;28;20135;-77
2022/02/09 22:58:55;;;;;;;6.32;3.92;;;18.10;66.50;;;;;;5107691;28;20028;-77
2022/02/09 23:01:33;;;;;;;7.18;4.50;;;18.10;66.50;;;;;;5107876;28;20024;-77
